Normanton, Queensland

3:10 AM EST on July 24, 2014 (GMT +1000)
Normanton (YNTN) Elev 72 ft | 17.68 °S, 141.07 °E | Change Station

Current weather conditions updated 1 hour ago

Clear
Clear
61 °F
Feels Like 61 °F
N
0
Wind Variable Wind from North
Gusts mph

Today is forecast to be Warmer than yesterday.

Today
High -- | Low -- °F
--% Chance of Precip.
Yesterday
High -- | Low -- °F
Precip. -- in
7:05 AM 6:19 PM
Waning Crescent, 9% visible
Pressure 29.95 in
Visibility -9999.0 miles
Clouds
Dew Point 59 °F
Humidity 94%
Rainfall 0.00 in
Snow Depth Not available.
UV Not available.
Pollen Not available.
Air Quality Not available.
Flu Activity Not available.
METAR YNTN 231600Z AUTO 00000KT //// // ////// 16/15 Q1014

More Conditions Fewer Conditions

Pressure 29.95 in
Visibility -9999.0 miles
Clouds
Dew Point 59 °F
Humidity 94%
Rainfall 0.00 in
Snow Depth Not available.
UV Not available.
Pollen Not available.
Air Quality Not available.
Flu Activity Not available.
METAR YNTN 231600Z AUTO 00000KT //// // ////// 16/15 Q1014

More Conditions Fewer Conditions

10-Day Weather Forecast

Almanac

Astronomy

Jul. 24, 2014 Rise Set
Actual Time 7:05 AM EST 6:19 PM EST
Civil Twilight 6:41 AM EST 6:42 PM EST
Nautical Twilight 6:15 AM EST 7:09 PM EST
Astronomical Twilight 5:49 AM EST 7:35 PM EST
Moon 4:37 AM EST (7/24) 4:09 PM EST (7/24)
Length of Visible Light 12h 00m
Length of Day
11h 14m
Tomorrow will be 0m 35s longer.
Waning Crescent, 9% of the Moon is Illuminated
Jul 23
Waning Crescent
Jul 26
New
Aug 3
First Quarter
Aug 10
Full
Aug 17
Last Quarter

Yesterday's Extremes

Country Highs Country Lows

Community

WunderPhotos

Upload Photos

1,736,678 photos uploaded!

Nearby

Snow Depth

Not available.

Earthquake Activity

City Distance Mag. Time & Date
No recent earthquake activity has been reported nearby.
Minimum magnitude displayed is 2.5.

Coastal Water Temperatures

Place Temperature
No Stations Reporting

Nearby Weather Stations

There are no personal weather stations in this area.